Time,TemperatureF,DewpointF,PressureIn,WindDirection,WindDirectionDegrees,WindSpeedMPH,WindSpeedGustMPH,Humidity,HourlyPrecipIn,Conditions,Clouds,dailyrainin,SoftwareType,DateUTC
2013-07-14 00:02:00,69.0,60.0,-100.00,NNW,345,0.0,2.0,71,0.00,,,-99.99,,2013-07-14 04:02:00,
2013-07-14 00:11:00,69.0,60.0,-100.00,NNW,345,0.0,2.0,71,0.00,,,-99.99,,2013-07-14 04:11:00,
2013-07-14 00:42:00,65.0,60.0,-100.00,WSW,240,0.0,1.0,81,0.00,,,-99.99,,2013-07-14 04:42:00,
2013-07-14 00:54:00,65.0,60.0,-100.00,WSW,240,0.0,1.0,81,0.00,,,-99.99,,2013-07-14 04:54:00,
2013-07-14 01:02:00,65.0,60.0,-100.00,WSW,240,0.0,1.0,81,0.00,,,-99.99,,2013-07-14 05:02:00,
2013-07-14 01:11:00,65.0,60.0,-100.00,WSW,240,0.0,1.0,81,0.00,,,-99.99,,2013-07-14 05:11:00,
2013-07-14 01:43:00,63.0,59.0,-100.00,East,95,0.0,1.0,86,0.00,,,-99.99,,2013-07-14 05:43:00,
2013-07-14 01:53:00,63.0,59.0,-100.00,East,95,0.0,1.0,86,0.00,,,-99.99,,2013-07-14 05:53:00,
2013-07-14 02:01:00,63.0,59.0,-100.00,East,95,0.0,1.0,86,0.00,,,-99.99,,2013-07-14 06:01:00,
2013-07-14 02:11:00,63.0,59.0,-100.00,East,95,0.0,1.0,86,0.00,,,-99.99,,2013-07-14 06:11:00,
2013-07-14 02:42:00,62.0,58.0,-100.00,SW,215,0.0,0.0,89,0.00,,,-99.99,,2013-07-14 06:42:00,
2013-07-14 02:53:00,62.0,58.0,-100.00,SW,215,0.0,0.0,89,0.00,,,-99.99,,2013-07-14 06:53:00,
2013-07-14 03:02:00,62.0,58.0,-100.00,SW,215,0.0,0.0,89,0.00,,,-99.99,,2013-07-14 07:02:00,
2013-07-14 03:12:00,62.0,58.0,-100.00,SW,215,0.0,0.0,89,0.00,,,-99.99,,2013-07-14 07:12:00,
2013-07-14 03:43:00,60.0,57.0,-100.00,NNE,20,1.0,2.0,90,0.00,,,-99.99,,2013-07-14 07:43:00,
2013-07-14 03:53:00,60.0,57.0,-100.00,NNE,20,1.0,2.0,90,0.00,,,-99.99,,2013-07-14 07:53:00,
2013-07-14 04:01:00,60.0,57.0,-100.00,NNE,20,1.0,2.0,90,0.00,,,-99.99,,2013-07-14 08:01:00,
2013-07-14 04:11:00,60.0,57.0,-100.00,NNE,20,1.0,2.0,90,0.00,,,-99.99,,2013-07-14 08:11:00,
2013-07-14 04:42:00,59.0,56.0,-100.00,North,10,1.0,3.0,91,0.00,,,-99.99,,2013-07-14 08:42:00,
2013-07-14 04:53:00,59.0,56.0,-100.00,North,10,1.0,3.0,91,0.00,,,-99.99,,2013-07-14 08:53:00,
2013-07-14 05:01:00,59.0,56.0,-100.00,North,10,1.0,3.0,91,0.00,,,-99.99,,2013-07-14 09:01:00,
2013-07-14 05:11:00,59.0,56.0,-100.00,North,10,1.0,3.0,91,0.00,,,-99.99,,2013-07-14 09:11:00,
2013-07-14 05:42:00,59.0,56.0,-100.00,NE,35,1.0,2.0,91,0.00,,,-99.99,,2013-07-14 09:42:00,
2013-07-14 05:53:00,59.0,56.0,-100.00,NE,35,1.0,2.0,91,0.00,,,-99.99,,2013-07-14 09:53:00,
2013-07-14 06:01:00,59.0,56.0,-100.00,NE,35,1.0,2.0,91,0.00,,,-99.99,,2013-07-14 10:01:00,
2013-07-14 06:11:00,59.0,56.0,-100.00,NE,35,1.0,2.0,91,0.00,,,-99.99,,2013-07-14 10:11:00,
2013-07-14 06:42:00,59.0,56.0,-100.00,North,10,1.0,2.0,91,0.00,,,-99.99,,2013-07-14 10:42:00,
2013-07-14 06:53:00,59.0,56.0,-100.00,North,10,1.0,2.0,91,0.00,,,-99.99,,2013-07-14 10:53:00,
2013-07-14 07:02:00,59.0,56.0,-100.00,North,10,1.0,2.0,91,0.00,,,-99.99,,2013-07-14 11:02:00,
2013-07-14 07:11:00,59.0,56.0,-100.00,North,10,1.0,2.0,91,0.00,,,-99.99,,2013-07-14 11:11:00,
2013-07-14 07:43:00,60.0,57.0,-100.00,NE,35,2.0,2.0,91,0.00,,,-99.99,,2013-07-14 11:43:00,
2013-07-14 07:53:00,60.0,57.0,-100.00,NE,35,2.0,2.0,91,0.00,,,-99.99,,2013-07-14 11:53:00,
2013-07-14 08:02:00,60.0,57.0,-100.00,NE,35,2.0,2.0,91,0.00,,,-99.99,,2013-07-14 12:02:00,
2013-07-14 08:11:00,60.0,57.0,-100.00,NE,35,2.0,2.0,91,0.00,,,-99.99,,2013-07-14 12:11:00,
2013-07-14 08:43:00,66.0,62.0,-100.00,NNE,15,1.0,2.0,87,0.00,,,-99.99,,2013-07-14 12:43:00,
2013-07-14 08:53:00,66.0,62.0,-100.00,NNE,15,1.0,2.0,87,0.00,,,-99.99,,2013-07-14 12:53:00,
2013-07-14 09:01:00,66.0,62.0,-100.00,NNE,15,1.0,2.0,87,0.00,,,-99.99,,2013-07-14 13:01:00,
2013-07-14 09:11:00,66.0,62.0,-100.00,NNE,15,1.0,2.0,87,0.00,,,-99.99,,2013-07-14 13:11:00,
2013-07-14 09:42:00,74.0,60.0,-100.00,ESE,105,2.0,6.0,61,0.00,,,-99.99,,2013-07-14 13:42:00,
2013-07-14 09:53:00,74.0,60.0,-100.00,ESE,105,2.0,6.0,61,0.00,,,-99.99,,2013-07-14 13:53:00,
2013-07-14 10:02:00,74.0,60.0,-100.00,ESE,105,2.0,6.0,61,0.00,,,-99.99,,2013-07-14 14:02:00,
2013-07-14 10:11:00,74.0,60.0,-100.00,ESE,105,2.0,6.0,61,0.00,,,-99.99,,2013-07-14 14:11:00,
2013-07-14 10:43:00,79.0,62.0,-100.00,SE,130,2.0,6.0,58,0.00,,,-99.99,,2013-07-14 14:43:00,
2013-07-14 10:53:00,79.0,62.0,-100.00,SE,130,2.0,6.0,58,0.00,,,-99.99,,2013-07-14 14:53:00,
2013-07-14 11:01:00,79.0,62.0,-100.00,SE,130,2.0,6.0,58,0.00,,,-99.99,,2013-07-14 15:01:00,
2013-07-14 11:12:00,79.0,62.0,-100.00,SE,130,2.0,6.0,58,0.00,,,-99.99,,2013-07-14 15:12:00,
2013-07-14 11:42:00,80.0,65.0,-100.00,SSW,205,4.0,8.0,61,0.00,,,-99.99,,2013-07-14 15:42:00,
2013-07-14 11:53:00,80.0,65.0,-100.00,SSW,205,4.0,8.0,61,0.00,,,-99.99,,2013-07-14 15:53:00,
2013-07-14 12:01:00,80.0,65.0,-100.00,SSW,205,4.0,8.0,61,0.00,,,-99.99,,2013-07-14 16:01:00,
2013-07-14 12:11:00,80.0,65.0,-100.00,SSW,205,4.0,8.0,61,0.00,,,-99.99,,2013-07-14 16:11:00,
2013-07-14 12:43:00,84.0,64.0,-100.00,SSE,150,4.0,9.0,52,0.00,,,-99.99,,2013-07-14 16:43:00,
2013-07-14 12:53:00,84.0,64.0,-100.00,SSE,150,4.0,9.0,52,0.00,,,-99.99,,2013-07-14 16:53:00,
2013-07-14 13:02:00,84.0,64.0,-100.00,SSE,150,4.0,9.0,52,0.00,,,-99.99,,2013-07-14 17:02:00,
2013-07-14 13:11:00,84.0,64.0,-100.00,SSE,150,4.0,9.0,52,0.00,,,-99.99,,2013-07-14 17:11:00,
2013-07-14 13:43:00,84.0,62.0,-100.00,SSE,160,7.0,11.0,47,0.00,,,-99.99,,2013-07-14 17:43:00,
2013-07-14 13:53:00,84.0,62.0,-100.00,SSE,160,7.0,11.0,47,0.00,,,-99.99,,2013-07-14 17:53:00,
2013-07-14 14:01:00,84.0,62.0,-100.00,SSE,160,7.0,11.0,47,0.00,,,-99.99,,2013-07-14 18:01:00,
2013-07-14 14:11:00,84.0,62.0,-100.00,SSE,160,7.0,11.0,47,0.00,,,-99.99,,2013-07-14 18:11:00,
2013-07-14 14:42:00,85.0,59.0,-100.00,SSW,195,7.0,11.0,41,0.00,,,-99.99,,2013-07-14 18:42:00,
2013-07-14 14:52:00,85.0,59.0,-100.00,SSW,195,7.0,11.0,41,0.00,,,-99.99,,2013-07-14 18:52:00,
2013-07-14 15:01:00,85.0,59.0,-100.00,SSW,195,7.0,11.0,41,0.00,,,-99.99,,2013-07-14 19:01:00,
2013-07-14 15:11:00,85.0,59.0,-100.00,SSW,195,7.0,11.0,41,0.00,,,-99.99,,2013-07-14 19:11:00,
2013-07-14 15:43:00,87.0,58.0,-100.00,South,180,4.0,9.0,38,0.00,,,-99.99,,2013-07-14 19:43:00,
2013-07-14 15:53:00,87.0,58.0,-100.00,South,180,4.0,9.0,38,0.00,,,-99.99,,2013-07-14 19:53:00,
2013-07-14 16:02:00,87.0,58.0,-100.00,South,180,4.0,9.0,38,0.00,,,-99.99,,2013-07-14 20:02:00,
2013-07-14 16:11:00,87.0,58.0,-100.00,South,180,4.0,9.0,38,0.00,,,-99.99,,2013-07-14 20:11:00,
2013-07-14 16:43:00,88.0,58.0,-100.00,SSW,195,4.0,10.0,36,0.00,,,-99.99,,2013-07-14 20:43:00,
2013-07-14 16:53:00,88.0,58.0,-100.00,SSW,195,4.0,10.0,36,0.00,,,-99.99,,2013-07-14 20:53:00,
2013-07-14 17:02:00,88.0,58.0,-100.00,SSW,195,4.0,10.0,36,0.00,,,-99.99,,2013-07-14 21:02:00,
2013-07-14 17:11:00,88.0,58.0,-100.00,SSW,195,4.0,10.0,36,0.00,,,-99.99,,2013-07-14 21:11:00,
2013-07-14 17:43:00,84.0,59.0,-100.00,SSE,150,7.0,12.0,42,0.00,,,-99.99,,2013-07-14 21:43:00,
2013-07-14 17:53:00,84.0,59.0,-100.00,SSE,150,7.0,12.0,42,0.00,,,-99.99,,2013-07-14 21:53:00,
2013-07-14 18:01:00,84.0,59.0,-100.00,SSE,150,7.0,12.0,42,0.00,,,-99.99,,2013-07-14 22:01:00,
2013-07-14 18:11:00,84.0,59.0,-100.00,SSE,150,7.0,12.0,42,0.00,,,-99.99,,2013-07-14 22:11:00,
2013-07-14 18:42:00,86.0,59.0,-100.00,SSE,160,8.0,12.0,41,0.00,,,-99.99,,2013-07-14 22:42:00,
2013-07-14 18:53:00,86.0,59.0,-100.00,SSE,160,8.0,12.0,41,0.00,,,-99.99,,2013-07-14 22:53:00,
2013-07-14 19:01:00,86.0,59.0,-100.00,SSE,160,8.0,12.0,41,0.00,,,-99.99,,2013-07-14 23:01:00,
2013-07-14 19:11:00,86.0,59.0,-100.00,SSE,160,8.0,12.0,41,0.00,,,-99.99,,2013-07-14 23:11:00,
2013-07-14 19:42:00,86.0,61.0,-100.00,South,190,4.0,6.0,43,0.00,,,-99.99,,2013-07-14 23:42:00,
2013-07-14 19:53:00,86.0,61.0,-100.00,South,190,4.0,6.0,43,0.00,,,-99.99,,2013-07-14 23:53:00,
2013-07-14 20:02:00,86.0,61.0,-100.00,South,190,4.0,6.0,43,0.00,,,-99.99,,2013-07-15 00:02:00,
2013-07-14 20:11:00,86.0,61.0,-100.00,South,190,4.0,6.0,43,0.00,,,-99.99,,2013-07-15 00:11:00,
2013-07-14 20:43:00,83.0,62.0,-100.00,South,170,4.0,5.0,48,0.00,,,-99.99,,2013-07-15 00:43:00,
2013-07-14 20:53:00,83.0,62.0,-100.00,South,170,4.0,5.0,48,0.00,,,-99.99,,2013-07-15 00:53:00,
2013-07-14 21:01:00,83.0,62.0,-100.00,South,170,4.0,5.0,48,0.00,,,-99.99,,2013-07-15 01:01:00,
2013-07-14 21:11:00,83.0,62.0,-100.00,South,170,4.0,5.0,48,0.00,,,-99.99,,2013-07-15 01:11:00,
2013-07-14 21:43:00,81.0,65.0,-100.00,SSE,150,1.0,3.0,57,0.00,,,-99.99,,2013-07-15 01:43:00,
2013-07-14 21:53:00,81.0,65.0,-100.00,SSE,150,1.0,3.0,57,0.00,,,-99.99,,2013-07-15 01:53:00,
2013-07-14 22:02:00,81.0,65.0,-100.00,SSE,150,1.0,3.0,57,0.00,,,-99.99,,2013-07-15 02:02:00,
2013-07-14 22:11:00,81.0,65.0,-100.00,SSE,150,1.0,3.0,57,0.00,,,-99.99,,2013-07-15 02:11:00,
2013-07-14 22:42:00,75.0,68.0,-100.00,NE,45,1.0,1.0,78,0.00,,,-99.99,,2013-07-15 02:42:00,
2013-07-14 22:53:00,75.0,68.0,-100.00,NE,45,1.0,1.0,78,0.00,,,-99.99,,2013-07-15 02:53:00,
2013-07-14 23:02:00,75.0,68.0,-100.00,NE,45,1.0,1.0,78,0.00,,,-99.99,,2013-07-15 03:02:00,
2013-07-14 23:11:00,75.0,68.0,-100.00,NE,45,1.0,1.0,78,0.00,,,-99.99,,2013-07-15 03:11:00,
2013-07-14 23:43:00,72.0,68.0,-100.00,NNE,20,1.0,2.0,86,0.00,,,-99.99,,2013-07-15 03:43:00,
2013-07-14 23:53:00,72.0,68.0,-100.00,NNE,20,1.0,2.0,86,0.00,,,-99.99,,2013-07-15 03:53:00,